Time;durP1;ratioP1;P1;durP2;ratioP2;P2;SDS_P1;SDS_P2;PMS_P1;PMS_P2;Temp;Humidity;BMP_temperature;BMP_pressure;BME280_temperature;BME280_humidity;BME280_pressure;Samples;Min_cycle;Max_cycle;Signal;HPM_P1;HPM_P2
2024/03/29 00:00:40;;;;;;;1.90;1.47;;;12.60;46.00;;;;;;5012932;28;20424;-55
2024/03/29 00:03:06;;;;;;;5.00;1.47;;;12.60;45.70;;;;;;5013915;28;20460;-57
2024/03/29 00:05:33;;;;;;;2.60;1.83;;;12.70;45.60;;;;;;5013704;28;20455;-56
2024/03/29 00:07:59;;;;;;;1.50;1.40;;;12.80;45.50;;;;;;5013504;28;20479;-57
2024/03/29 00:10:25;;;;;;;1.60;1.23;;;13.00;45.20;;;;;;5012921;28;20535;-57
2024/03/29 00:12:53;;;;;;;1.90;1.70;;;13.20;44.80;;;;;;5013993;28;20549;-53
2024/03/29 00:15:18;;;;;;;4.53;2.00;;;13.20;44.40;;;;;;5013624;28;20226;-57
2024/03/29 00:17:44;;;;;;;2.03;1.40;;;13.40;44.50;;;;;;5013154;28;20808;-57
2024/03/29 00:20:11;;;;;;;1.40;1.30;;;13.30;43.90;;;;;;5011817;28;20240;-57
2024/03/29 00:22:37;;;;;;;1.73;1.33;;;13.50;43.60;;;;;;5013970;28;20182;-54
2024/03/29 00:25:03;;;;;;;1.70;1.40;;;13.70;43.70;;;;;;5012226;28;20947;-58
2024/03/29 00:27:29;;;;;;;2.23;1.23;;;13.90;43.30;;;;;;5014570;28;20197;-57
2024/03/29 00:29:55;;;;;;;1.57;1.27;;;13.80;42.80;;;;;;5007569;28;20190;-58
2024/03/29 00:32:21;;;;;;;2.80;1.20;;;13.80;43.30;;;;;;5014063;28;20425;-55
2024/03/29 00:34:50;;;;;;;1.90;1.70;;;13.70;42.80;;;;;;5012227;28;20268;-58
2024/03/29 00:37:16;;;;;;;1.10;1.00;;;13.50;43.40;;;;;;5014119;28;20448;-57
2024/03/29 00:39:41;;;;;;;1.20;1.10;;;13.50;43.60;;;;;;5005702;28;20936;-57
2024/03/29 00:42:15;;;;;;;1.73;1.33;;;13.80;43.60;;;;;;5013492;28;20188;-55
2024/03/29 00:44:43;;;;;;;2.13;1.10;;;13.90;43.50;;;;;;5011518;28;20181;-57
2024/03/29 00:47:09;;;;;;;1.23;1.13;;;13.90;43.50;;;;;;5012931;28;20490;-56
2024/03/29 00:49:35;;;;;;;2.10;1.10;;;13.70;43.10;;;;;;5012864;28;20501;-57
2024/03/29 00:52:01;;;;;;;1.87;1.30;;;13.70;43.10;;;;;;5012811;28;20212;-54
2024/03/29 00:54:27;;;;;;;1.00;0.93;;;13.60;43.20;;;;;;5013222;28;20186;-57
2024/03/29 00:56:53;;;;;;;1.47;1.10;;;13.60;43.20;;;;;;5011070;28;20475;-57
2024/03/29 00:59:20;;;;;;;1.40;1.00;;;13.60;43.10;;;;;;5013031;28;20182;-55
2024/03/29 01:01:46;;;;;;;1.40;1.00;;;13.70;43.30;;;;;;5012946;28;20178;-58
2024/03/29 01:04:13;;;;;;;0.80;0.80;;;13.80;43.10;;;;;;5012694;28;20468;-57
2024/03/29 01:06:40;;;;;;;1.57;1.10;;;13.80;43.00;;;;;;5012462;28;20854;-55
2024/03/29 01:09:06;;;;;;;1.53;0.90;;;13.70;42.60;;;;;;5011586;28;20508;-55
2024/03/29 01:11:32;;;;;;;3.50;1.07;;;13.90;42.80;;;;;;5012783;28;20420;-54
2024/03/29 01:13:58;;;;;;;2.80;2.23;;;14.10;43.20;;;;;;5011824;28;20427;-57
2024/03/29 01:16:24;;;;;;;3.23;1.50;;;14.20;42.20;;;;;;5013629;28;20488;-56
2024/03/29 01:18:51;;;;;;;1.73;1.10;;;14.30;42.50;;;;;;5010662;28;20443;-56
2024/03/29 01:21:18;;;;;;;1.40;0.80;;;14.00;42.60;;;;;;5013833;28;20185;-57
2024/03/29 01:23:43;;;;;;;1.60;1.13;;;14.00;42.90;;;;;;5010934;28;20976;-56
2024/03/29 01:26:11;;;;;;;1.20;1.10;;;14.10;43.20;;;;;;5012546;28;20932;-54
2024/03/29 01:28:37;;;;;;;3.17;1.50;;;14.10;43.10;;;;;;5012235;28;20194;-56
2024/03/29 01:31:03;;;;;;;1.80;1.30;;;14.00;43.00;;;;;;5012613;28;20447;-55
2024/03/29 01:33:32;;;;;;;2.83;1.20;;;14.00;43.10;;;;;;5012868;28;20407;-54
2024/03/29 01:35:58;;;;;;;2.13;1.50;;;13.90;43.30;;;;;;5013309;28;21002;-58
2024/03/29 01:38:23;;;;;;;1.10;1.00;;;14.10;43.00;;;;;;5016827;28;20441;-55
2024/03/29 01:40:49;;;;;;;2.10;1.00;;;14.20;42.90;;;;;;5016175;28;20638;-57
2024/03/29 01:43:14;;;;;;;4.83;1.00;;;13.90;43.10;;;;;;5017555;28;20672;-57
2024/03/29 01:45:42;;;;;;;1.57;1.40;;;13.90;43.50;;;;;;5015519;28;20202;-56
2024/03/29 01:48:09;;;;;;;2.37;1.50;;;13.90;43.10;;;;;;5016353;28;20233;-57
2024/03/29 01:50:36;;;;;;;2.10;1.10;;;13.90;43.60;;;;;;5014403;28;20431;-56
2024/03/29 01:53:03;;;;;;;1.47;1.17;;;13.80;43.20;;;;;;5016118;28;20433;-56
2024/03/29 01:55:28;;;;;;;1.20;0.90;;;14.10;43.50;;;;;;5016332;28;20820;-57
2024/03/29 01:57:56;;;;;;;1.23;1.10;;;14.00;43.30;;;;;;5014688;28;20454;-56
2024/03/29 02:00:22;;;;;;;2.30;1.20;;;13.80;43.50;;;;;;5016331;28;20188;-58
2024/03/29 02:02:48;;;;;;;1.33;0.93;;;13.70;44.10;;;;;;5015850;28;20425;-57
2024/03/29 02:05:14;;;;;;;2.10;0.97;;;13.60;43.50;;;;;;5015971;28;20432;-56
2024/03/29 02:07:40;;;;;;;1.23;0.70;;;13.50;43.90;;;;;;5015846;28;20204;-55
2024/03/29 02:10:08;;;;;;;1.17;0.90;;;13.40;43.70;;;;;;5014048;28;20424;-55
2024/03/29 02:12:33;;;;;;;1.30;0.90;;;13.30;44.10;;;;;;5016870;28;20431;-54
2024/03/29 02:15:02;;;;;;;2.07;1.57;;;13.10;44.30;;;;;;5014789;28;20852;-57
2024/03/29 02:17:27;;;;;;;1.03;0.80;;;13.00;44.40;;;;;;5016717;28;20509;-57
2024/03/29 02:19:53;;;;;;;0.77;0.70;;;13.10;44.40;;;;;;5014710;28;20762;-57
2024/03/29 02:22:21;;;;;;;1.10;0.90;;;13.10;44.60;;;;;;5015844;28;20193;-57
2024/03/29 02:24:48;;;;;;;1.70;0.90;;;13.20;44.20;;;;;;5014701;28;20178;-58
2024/03/29 02:27:13;;;;;;;1.70;1.07;;;13.30;44.30;;;;;;5016298;28;20451;-57
2024/03/29 02:29:39;;;;;;;0.70;0.70;;;13.40;43.90;;;;;;5014666;28;20737;-57
2024/03/29 02:32:05;;;;;;;0.90;0.80;;;13.50;43.60;;;;;;5015315;28;20550;-56
2024/03/29 02:34:31;;;;;;;1.20;1.10;;;13.40;43.60;;;;;;5015643;28;20197;-54
2024/03/29 02:36:57;;;;;;;0.60;0.60;;;13.30;43.70;;;;;;5014992;28;20559;-57
2024/03/29 02:39:22;;;;;;;1.80;0.83;;;13.30;44.00;;;;;;5015429;28;20182;-57
2024/03/29 02:41:48;;;;;;;1.03;0.97;;;13.20;44.50;;;;;;5015373;28;20428;-57
2024/03/29 02:44:15;;;;;;;0.70;0.60;;;13.30;44.20;;;;;;5014704;28;20193;-57
2024/03/29 02:46:41;;;;;;;1.50;0.80;;;13.30;43.90;;;;;;5013305;28;20283;-58
2024/03/29 02:49:07;;;;;;;1.03;0.70;;;13.40;44.20;;;;;;5014318;28;20842;-55
2024/03/29 02:51:33;;;;;;;1.30;0.77;;;13.40;44.00;;;;;;5016123;28;20416;-58
2024/03/29 02:53:58;;;;;;;2.40;1.00;;;13.40;44.00;;;;;;5014077;28;20178;-57
2024/03/29 02:56:24;;;;;;;0.77;0.73;;;13.70;43.80;;;;;;5014590;28;20239;-57
2024/03/29 02:58:50;;;;;;;3.07;1.77;;;13.70;43.90;;;;;;5013939;28;20197;-57
2024/03/29 03:01:15;;;;;;;0.90;0.80;;;13.80;43.80;;;;;;5016067;28;20189;-57
2024/03/29 03:03:41;;;;;;;1.20;0.80;;;13.80;43.60;;;;;;5013833;28;20186;-56
2024/03/29 03:06:06;;;;;;;0.90;0.80;;;13.80;43.60;;;;;;5014552;28;20677;-57
2024/03/29 03:11:16;;;;;;;1.20;1.10;;;13.60;43.80;;;;;;5015122;28;20216;-58
2024/03/29 03:13:41;;;;;;;2.77;1.60;;;13.40;44.50;;;;;;5007108;28;20425;-58
2024/03/29 03:16:08;;;;;;;1.50;0.83;;;13.20;44.40;;;;;;5014433;28;20653;-58
2024/03/29 03:18:34;;;;;;;2.20;0.80;;;13.10;45.00;;;;;;5014917;28;20428;-58
2024/03/29 03:20:59;;;;;;;0.67;0.67;;;13.40;44.20;;;;;;5014350;28;20200;-57
2024/03/29 03:23:25;;;;;;;4.63;0.80;;;13.50;43.70;;;;;;5013961;28;20178;-57
2024/03/29 03:26:05;;;;;;;0.80;0.70;;;13.70;43.60;;;;;;5014203;28;20593;-58
2024/03/29 03:28:30;;;;;;;1.23;0.67;;;13.90;42.70;;;;;;5014864;28;20495;-59
2024/03/29 03:30:56;;;;;;;1.33;0.80;;;13.80;42.60;;;;;;5013906;28;20501;-58
2024/03/29 03:33:21;;;;;;;0.87;0.50;;;14.10;43.00;;;;;;5014671;28;20737;-55
2024/03/29 03:35:48;;;;;;;0.70;0.70;;;14.30;42.80;;;;;;5013012;28;20284;-58
2024/03/29 03:38:14;;;;;;;0.90;0.70;;;14.60;41.90;;;;;;5014970;28;20264;-57
2024/03/29 03:40:39;;;;;;;0.93;0.60;;;14.40;40.70;;;;;;5013233;28;20432;-58
2024/03/29 03:43:06;;;;;;;1.00;0.83;;;14.50;41.70;;;;;;5014308;28;20867;-55
2024/03/29 03:45:36;;;;;;;0.97;0.90;;;14.30;41.00;;;;;;5014017;28;20184;-58
2024/03/29 03:48:05;;;;;;;0.97;0.80;;;14.40;41.60;;;;;;5013768;28;20823;-58
2024/03/29 03:50:31;;;;;;;0.80;0.80;;;14.60;40.70;;;;;;5013494;28;20432;-57
2024/03/29 03:52:57;;;;;;;1.00;0.70;;;14.60;40.40;;;;;;5013955;28;20428;-59
2024/03/29 03:55:23;;;;;;;0.60;0.50;;;14.90;40.50;;;;;;5013873;28;20481;-59
2024/03/29 03:57:48;;;;;;;1.00;0.60;;;15.30;39.40;;;;;;5011931;28;20213;-57
2024/03/29 04:00:14;;;;;;;0.70;0.70;;;15.40;39.70;;;;;;5013698;28;20499;-58
2024/03/29 04:02:39;;;;;;;0.80;0.80;;;15.40;38.90;;;;;;5013833;28;20189;-58
2024/03/29 04:05:06;;;;;;;0.77;0.60;;;15.40;39.10;;;;;;5012741;28;20178;-56
2024/03/29 04:07:32;;;;;;;0.80;0.80;;;15.60;38.90;;;;;;5013515;28;20212;-58
2024/03/29 04:09:57;;;;;;;1.00;0.90;;;15.80;38.70;;;;;;5011484;28;20424;-58
2024/03/29 04:12:23;;;;;;;1.30;0.73;;;15.90;38.40;;;;;;5014712;28;20185;-56
2024/03/29 04:14:49;;;;;;;1.03;0.60;;;15.90;39.30;;;;;;5012526;28;20244;-58
2024/03/29 04:17:14;;;;;;;0.73;0.63;;;15.90;38.10;;;;;;5013723;28;20620;-57
2024/03/29 04:19:40;;;;;;;0.70;0.70;;;16.00;37.20;;;;;;5012386;28;20181;-58
2024/03/29 04:22:05;;;;;;;0.70;0.60;;;15.80;37.60;;;;;;5013489;28;20182;-57
2024/03/29 04:24:31;;;;;;;1.30;0.90;;;15.70;38.00;;;;;;5012099;28;20181;-59
2024/03/29 04:26:57;;;;;;;0.97;0.70;;;15.50;38.30;;;;;;5013016;28;20213;-57
2024/03/29 04:29:23;;;;;;;0.80;0.80;;;15.40;38.60;;;;;;5013362;28;20188;-58
2024/03/29 04:31:49;;;;;;;0.60;0.60;;;15.20;38.40;;;;;;5012274;28;20178;-58
2024/03/29 04:34:14;;;;;;;1.47;0.80;;;15.10;39.00;;;;;;5013069;28;20662;-58
2024/03/29 04:36:40;;;;;;;0.93;0.80;;;15.00;38.80;;;;;;5013004;28;20255;-56
2024/03/29 04:39:06;;;;;;;1.53;0.90;;;15.10;39.90;;;;;;5012141;28;20193;-58
2024/03/29 04:41:34;;;;;;;0.70;0.70;;;15.00;39.80;;;;;;5011631;28;20177;-58
2024/03/29 04:44:01;;;;;;;2.27;0.83;;;15.00;40.30;;;;;;5011165;28;20425;-55
2024/03/29 04:46:29;;;;;;;0.60;0.60;;;14.80;40.00;;;;;;5013967;28;20525;-57
2024/03/29 04:48:55;;;;;;;0.80;0.80;;;14.40;40.50;;;;;;5011466;28;20453;-57
2024/03/29 04:51:20;;;;;;;0.83;0.70;;;14.50;40.80;;;;;;5014140;28;20457;-58
2024/03/29 04:53:46;;;;;;;0.90;0.90;;;14.70;40.40;;;;;;5011995;28;20193;-57
2024/03/29 04:56:12;;;;;;;0.60;0.60;;;15.10;40.20;;;;;;5012300;28;20214;-53
2024/03/29 04:58:37;;;;;;;1.00;0.70;;;15.30;39.50;;;;;;5011815;28;20366;-55
2024/03/29 05:01:03;;;;;;;0.70;0.60;;;15.00;39.80;;;;;;5012605;28;20669;-59
2024/03/29 05:03:28;;;;;;;1.00;1.00;;;14.70;39.80;;;;;;5012935;28;20231;-56
2024/03/29 05:05:54;;;;;;;1.60;0.87;;;14.90;40.10;;;;;;5012708;28;20190;-57
2024/03/29 05:08:22;;;;;;;0.80;0.70;;;15.10;40.00;;;;;;5013337;28;20275;-54
2024/03/29 05:10:48;;;;;;;1.33;0.90;;;15.10;39.30;;;;;;5010231;28;20220;-56
2024/03/29 05:13:14;;;;;;;1.73;0.70;;;15.00;38.40;;;;;;5013115;28;20475;-54
2024/03/29 05:15:39;;;;;;;1.43;0.70;;;14.70;39.60;;;;;;5011783;28;20480;-57
2024/03/29 05:18:05;;;;;;;1.10;0.57;;;14.20;39.90;;;;;;5012483;28;20205;-56
2024/03/29 05:20:31;;;;;;;0.77;0.73;;;14.10;40.70;;;;;;5012677;28;20177;-59
2024/03/29 05:22:58;;;;;;;1.20;0.70;;;14.10;41.40;;;;;;5011681;28;20178;-58
2024/03/29 05:25:23;;;;;;;2.50;1.97;;;14.10;40.60;;;;;;5012448;28;20635;-58
2024/03/29 05:27:49;;;;;;;1.13;0.97;;;13.90;40.90;;;;;;5012172;28;20515;-58
2024/03/29 05:30:16;;;;;;;2.60;1.30;;;13.80;41.60;;;;;;5012340;28;20208;-56
2024/03/29 05:32:41;;;;;;;1.00;0.90;;;13.70;40.90;;;;;;5012141;28;20421;-58
2024/03/29 05:35:08;;;;;;;0.80;0.70;;;13.60;41.90;;;;;;5011069;28;21043;-56
2024/03/29 05:37:35;;;;;;;0.90;0.80;;;13.60;40.70;;;;;;5012546;28;20366;-58
2024/03/29 05:40:03;;;;;;;1.13;0.60;;;13.40;40.30;;;;;;5011338;28;20767;-56
2024/03/29 05:42:30;;;;;;;1.47;0.70;;;13.30;40.80;;;;;;5013561;28;20481;-57
2024/03/29 05:44:56;;;;;;;1.63;0.70;;;13.50;41.20;;;;;;5010977;28;20425;-58
2024/03/29 05:47:21;;;;;;;1.60;0.70;;;13.60;41.30;;;;;;5012845;28;21010;-58
2024/03/29 05:49:47;;;;;;;1.27;0.87;;;13.80;41.10;;;;;;5010435;28;20298;-57
2024/03/29 05:52:13;;;;;;;1.40;1.30;;;13.80;40.10;;;;;;5012992;28;20194;-57
2024/03/29 05:54:40;;;;;;;1.57;1.20;;;13.40;40.60;;;;;;5011466;28;20432;-58
2024/03/29 05:57:09;;;;;;;2.50;1.07;;;13.30;41.30;;;;;;5010772;28;20582;-58
2024/03/29 05:59:35;;;;;;;1.43;1.27;;;13.40;41.70;;;;;;5011973;28;20554;-56
2024/03/29 06:02:01;;;;;;;2.57;1.33;;;13.60;41.60;;;;;;5012129;28;20929;-55
2024/03/29 06:04:32;;;;;;;1.63;1.40;;;13.60;41.50;;;;;;5012210;28;20193;-56
2024/03/29 06:07:08;;;;;;;1.50;1.27;;;13.30;42.00;;;;;;5012052;28;20618;-56
2024/03/29 06:09:34;;;;;;;3.43;1.33;;;13.20;41.80;;;;;;5010507;28;20433;-57
2024/03/29 06:12:00;;;;;;;2.43;1.60;;;13.50;41.90;;;;;;5012252;28;20804;-57
2024/03/29 06:17:25;;;;;;;4.23;2.20;;;13.60;40.80;;;;;;5012428;28;20467;-58
2024/03/29 06:19:50;;;;;;;2.23;1.20;;;13.50;40.70;;;;;;5005531;28;20425;-56
2024/03/29 06:22:19;;;;;;;1.67;0.80;;;13.80;40.80;;;;;;5014971;28;20425;-57
2024/03/29 06:24:45;;;;;;;1.47;0.97;;;14.00;40.60;;;;;;5014579;28;20692;-57
2024/03/29 06:27:11;;;;;;;0.80;0.77;;;14.10;40.30;;;;;;5015497;28;20488;-57
2024/03/29 06:29:36;;;;;;;0.80;0.80;;;14.10;40.10;;;;;;5015055;28;20476;-55
2024/03/29 06:32:02;;;;;;;0.90;0.90;;;14.10;40.10;;;;;;5015520;28;20524;-57
2024/03/29 06:34:31;;;;;;;0.90;0.80;;;14.30;39.80;;;;;;5015579;28;20188;-57
2024/03/29 06:36:57;;;;;;;2.10;0.77;;;14.10;39.50;;;;;;5014269;28;20217;-58
2024/03/29 06:39:22;;;;;;;1.10;0.80;;;14.10;40.70;;;;;;5015203;28;20420;-56
2024/03/29 06:41:48;;;;;;;0.80;0.80;;;14.30;40.40;;;;;;5013876;28;20182;-58
2024/03/29 06:44:14;;;;;;;1.20;1.10;;;14.30;40.20;;;;;;5015052;28;20178;-57
2024/03/29 06:46:39;;;;;;;1.77;0.80;;;14.20;40.20;;;;;;5014724;28;20720;-56
2024/03/29 06:49:05;;;;;;;0.90;0.80;;;14.40;40.10;;;;;;5013665;28;20186;-58
2024/03/29 06:51:31;;;;;;;1.30;1.20;;;14.50;40.20;;;;;;5016349;28;20417;-58
2024/03/29 06:53:56;;;;;;;1.10;1.10;;;14.60;40.00;;;;;;5014241;28;20231;-58
2024/03/29 06:56:22;;;;;;;1.20;1.03;;;14.80;40.00;;;;;;5014843;28;20300;-58
2024/03/29 06:58:47;;;;;;;0.80;0.80;;;15.00;40.00;;;;;;5013754;28;20236;-56
2024/03/29 07:01:13;;;;;;;0.70;0.70;;;15.10;39.90;;;;;;5015586;28;20194;-58
2024/03/29 07:03:39;;;;;;;0.70;0.70;;;15.10;39.30;;;;;;5014391;28;20182;-59
2024/03/29 07:06:05;;;;;;;1.00;0.90;;;15.20;39.80;;;;;;5014504;28;20196;-57
2024/03/29 07:08:30;;;;;;;0.73;0.73;;;15.30;39.00;;;;;;5015315;28;20420;-58
2024/03/29 07:11:00;;;;;;;0.60;0.60;;;15.30;39.20;;;;;;5013344;28;20186;-58
2024/03/29 07:13:27;;;;;;;0.70;0.70;;;15.50;39.00;;;;;;5014578;28;20181;-56
2024/03/29 07:15:53;;;;;;;0.60;0.57;;;15.80;39.00;;;;;;5014500;28;21015;-57
2024/03/29 07:18:18;;;;;;;1.23;0.97;;;15.90;38.50;;;;;;5015304;28;20441;-56
2024/03/29 07:20:44;;;;;;;1.20;0.93;;;16.00;38.20;;;;;;5013672;28;20180;-58
2024/03/29 07:23:11;;;;;;;1.00;0.70;;;16.10;38.30;;;;;;5012962;28;20658;-59
2024/03/29 07:25:37;;;;;;;1.00;0.90;;;16.30;38.00;;;;;;5014461;28;20198;-58
2024/03/29 07:28:02;;;;;;;0.90;0.70;;;16.30;37.90;;;;;;5014237;28;20445;-59
2024/03/29 07:30:28;;;;;;;1.60;0.93;;;16.30;38.00;;;;;;5014160;28;20564;-58
2024/03/29 07:32:54;;;;;;;2.40;1.13;;;16.40;37.40;;;;;;5013034;28;20228;-56
2024/03/29 07:35:19;;;;;;;1.00;0.90;;;16.30;38.50;;;;;;5013561;28;20597;-59
2024/03/29 07:37:50;;;;;;;0.97;0.80;;;16.30;38.70;;;;;;5014329;28;20202;-58
2024/03/29 07:40:16;;;;;;;1.83;0.93;;;16.30;38.60;;;;;;5014374;28;20190;-57
2024/03/29 07:42:42;;;;;;;1.20;1.10;;;16.40;38.90;;;;;;5007358;28;20475;-59
2024/03/29 07:45:08;;;;;;;1.00;0.67;;;16.40;38.60;;;;;;5012799;28;20189;-58
2024/03/29 07:47:34;;;;;;;4.30;2.03;;;16.60;40.20;;;;;;5014997;28;20876;-60
2024/03/29 07:49:59;;;;;;;1.00;0.90;;;16.60;42.90;;;;;;5011476;28;20673;-59
2024/03/29 07:52:25;;;;;;;1.67;1.57;;;16.70;44.50;;;;;;5015110;28;20182;-60
2024/03/29 07:54:51;;;;;;;2.00;1.00;;;16.80;45.40;;;;;;5012782;28;20611;-59
2024/03/29 07:57:17;;;;;;;1.27;1.00;;;16.60;46.30;;;;;;5013482;28;20206;-58
2024/03/29 07:59:43;;;;;;;14.40;1.23;;;16.60;47.10;;;;;;5008314;28;20274;-59
2024/03/29 08:02:08;;;;;;;1.00;1.00;;;16.70;47.20;;;;;;5013622;28;20515;-58
2024/03/29 08:04:35;;;;;;;1.30;1.07;;;16.80;47.50;;;;;;5013735;28;20187;-60
2024/03/29 08:07:00;;;;;;;1.50;0.93;;;16.30;46.00;;;;;;5013465;28;20780;-59
2024/03/29 08:09:26;;;;;;;1.23;0.90;;;15.90;47.40;;;;;;5012625;28;20433;-59
2024/03/29 08:11:52;;;;;;;0.80;0.80;;;16.10;48.30;;;;;;5013428;28;20181;-60
2024/03/29 08:14:17;;;;;;;1.10;1.00;;;16.20;48.80;;;;;;5013436;28;20186;-60
2024/03/29 08:16:43;;;;;;;1.87;1.40;;;16.30;48.30;;;;;;5013185;28;20245;-59
2024/03/29 08:19:09;;;;;;;4.30;3.53;;;16.50;48.60;;;;;;5012140;28;20186;-56
2024/03/29 08:21:35;;;;;;;5.87;3.67;;;16.60;48.80;;;;;;5014069;28;20192;-59
2024/03/29 08:24:01;;;;;;;2.60;2.13;;;16.60;49.70;;;;;;5011186;28;20433;-59
2024/03/29 08:26:28;;;;;;;2.90;2.60;;;16.60;50.60;;;;;;5014059;28;20509;-59
2024/03/29 08:28:54;;;;;;;4.13;2.40;;;16.60;50.60;;;;;;5011619;28;20725;-60
2024/03/29 08:31:20;;;;;;;4.87;2.20;;;16.60;51.20;;;;;;5014318;28;20503;-61
2024/03/29 08:33:45;;;;;;;2.10;1.90;;;16.60;51.50;;;;;;5012103;28;20652;-59
2024/03/29 08:36:11;;;;;;;2.07;1.80;;;16.70;51.90;;;;;;5011925;28;20236;-60
2024/03/29 08:38:41;;;;;;;4.83;1.60;;;16.70;51.90;;;;;;5012581;28;20247;-59
2024/03/29 08:41:07;;;;;;;2.23;1.90;;;16.60;52.40;;;;;;5012770;28;20197;-60
2024/03/29 08:43:33;;;;;;;2.20;2.00;;;16.60;52.30;;;;;;5010288;28;20487;-59
2024/03/29 08:45:59;;;;;;;1.33;1.23;;;16.70;53.00;;;;;;5012519;28;20940;-58
2024/03/29 08:48:27;;;;;;;4.40;1.50;;;16.60;53.60;;;;;;5011756;28;20458;-58
2024/03/29 08:50:53;;;;;;;1.60;1.40;;;16.70;54.00;;;;;;5012298;28;20182;-60
2024/03/29 08:53:18;;;;;;;4.10;1.20;;;16.70;54.30;;;;;;5013229;28;20429;-60
2024/03/29 08:55:48;;;;;;;3.37;1.30;;;16.70;54.40;;;;;;5012171;28;20841;-60
2024/03/29 08:58:14;;;;;;;1.20;1.10;;;16.70;54.90;;;;;;5011850;28;20206;-60
2024/03/29 09:00:39;;;;;;;1.77;1.30;;;16.80;54.60;;;;;;5011507;28;20424;-59
2024/03/29 09:03:05;;;;;;;2.20;2.00;;;16.80;54.60;;;;;;5012313;28;20684;-59
2024/03/29 09:05:31;;;;;;;2.50;1.80;;;16.90;54.60;;;;;;5012785;28;20185;-57
2024/03/29 09:07:57;;;;;;;1.40;1.30;;;16.90;54.30;;;;;;5008342;28;20976;-60
2024/03/29 09:10:24;;;;;;;2.60;1.33;;;16.90;54.50;;;;;;5011184;28;20336;-60
2024/03/29 09:12:50;;;;;;;2.53;2.33;;;16.90;54.90;;;;;;5011480;28;20551;-59
2024/03/29 09:15:16;;;;;;;15.47;12.70;;;17.00;55.50;;;;;;5012586;28;20475;-59
2024/03/29 09:17:46;;;;;;;7.73;6.63;;;17.10;55.60;;;;;;5005617;28;20444;-60
2024/03/29 09:20:12;;;;;;;3.23;2.70;;;17.00;56.50;;;;;;5011717;28;20429;-59
2024/03/29 09:22:38;;;;;;;1.83;1.73;;;17.00;56.90;;;;;;5012616;28;20749;-58
2024/03/29 09:25:04;;;;;;;2.50;2.30;;;17.10;57.10;;;;;;5010756;28;20185;-58
2024/03/29 09:27:33;;;;;;;2.80;1.77;;;17.20;57.20;;;;;;5012595;28;20193;-60
2024/03/29 09:29:59;;;;;;;3.30;2.00;;;17.10;56.80;;;;;;5010968;28;20433;-59
2024/03/29 09:32:24;;;;;;;2.20;1.90;;;17.10;56.90;;;;;;5013223;28;20431;-59
2024/03/29 09:34:50;;;;;;;3.10;2.40;;;17.20;57.00;;;;;;5011514;28;20559;-60
2024/03/29 09:37:17;;;;;;;2.57;2.37;;;17.20;57.00;;;;;;5012026;28;20214;-58
2024/03/29 09:39:43;;;;;;;8.00;2.23;;;17.20;57.00;;;;;;5004413;28;20196;-60
2024/03/29 09:42:13;;;;;;;3.67;2.67;;;17.20;56.90;;;;;;5011233;28;20516;-59
2024/03/29 09:44:39;;;;;;;2.50;1.83;;;17.00;57.50;;;;;;5011331;28;20196;-59
2024/03/29 09:47:06;;;;;;;3.17;2.60;;;17.10;57.40;;;;;;5011407;28;20464;-59
2024/03/29 09:49:33;;;;;;;2.40;2.20;;;17.00;57.50;;;;;;5011996;28;20185;-59
2024/03/29 09:52:00;;;;;;;2.33;1.63;;;17.00;57.30;;;;;;5011232;28;20516;-59
2024/03/29 09:54:29;;;;;;;2.23;2.00;;;16.80;57.60;;;;;;5012479;28;20421;-60
2024/03/29 09:56:58;;;;;;;3.50;2.00;;;16.60;58.00;;;;;;5012973;28;21061;-60
2024/03/29 09:59:26;;;;;;;2.33;1.97;;;16.50;57.90;;;;;;5015685;28;20428;-60
2024/03/29 10:01:53;;;;;;;3.20;2.90;;;16.50;57.50;;;;;;5015636;28;20461;-60
2024/03/29 10:04:21;;;;;;;2.93;2.00;;;16.40;57.40;;;;;;5015501;28;20851;-58
2024/03/29 10:06:50;;;;;;;4.33;2.50;;;16.20;56.90;;;;;;5015141;28;20464;-59
2024/03/29 10:09:19;;;;;;;1.60;1.50;;;15.70;58.10;;;;;;5015372;28;20452;-59
2024/03/29 10:11:45;;;;;;;1.80;1.67;;;15.80;58.40;;;;;;5007985;28;20801;-59
2024/03/29 10:14:11;;;;;;;2.30;2.10;;;16.00;57.70;;;;;;5015303;28;20463;-59
2024/03/29 10:16:37;;;;;;;1.90;1.70;;;16.10;57.40;;;;;;5015380;28;20485;-60
2024/03/29 10:19:04;;;;;;;1.57;1.47;;;16.20;57.00;;;;;;5013542;28;20487;-57
2024/03/29 10:21:29;;;;;;;2.57;1.70;;;16.40;57.10;;;;;;5016521;28;20240;-59
2024/03/29 10:23:55;;;;;;;2.93;2.13;;;16.60;56.80;;;;;;5014721;28;20428;-60
2024/03/29 10:26:25;;;;;;;4.43;4.03;;;16.70;56.80;;;;;;5015563;28;20193;-59
2024/03/29 10:28:51;;;;;;;4.80;2.20;;;16.90;56.70;;;;;;5014103;28;20182;-59
2024/03/29 10:31:17;;;;;;;1.90;1.80;;;17.00;57.40;;;;;;5015577;28;20564;-58
2024/03/29 10:33:44;;;;;;;2.53;1.50;;;17.10;57.50;;;;;;5014562;28;20421;-59
2024/03/29 10:36:12;;;;;;;4.50;2.40;;;17.10;57.50;;;;;;5014481;28;20248;-59
2024/03/29 10:38:38;;;;;;;6.03;5.43;;;17.10;57.70;;;;;;5014387;28;20928;-59
2024/03/29 10:41:06;;;;;;;10.07;8.30;;;17.00;58.40;;;;;;5014826;28;20429;-60
2024/03/29 10:43:33;;;;;;;6.90;6.10;;;16.90;58.60;;;;;;5015419;28;20465;-59
2024/03/29 10:46:00;;;;;;;2.80;2.60;;;17.10;58.40;;;;;;5013754;28;20409;-59
2024/03/29 10:48:28;;;;;;;3.40;3.10;;;17.00;59.10;;;;;;5014905;28;20440;-60
2024/03/29 10:50:54;;;;;;;3.10;2.80;;;16.90;59.40;;;;;;5014214;28;20425;-60
2024/03/29 10:53:22;;;;;;;2.07;1.87;;;16.80;59.10;;;;;;5015717;28;20413;-60
2024/03/29 10:55:53;;;;;;;2.20;2.10;;;16.70;59.50;;;;;;5013732;28;21025;-60
2024/03/29 10:58:24;;;;;;;2.90;2.00;;;16.70;59.50;;;;;;5015407;28;20453;-58
2024/03/29 11:00:56;;;;;;;2.87;1.73;;;16.70;59.60;;;;;;5014134;28;20431;-58
2024/03/29 11:03:31;;;;;;;1.87;1.73;;;16.70;59.30;;;;;;5015306;28;20508;-59
2024/03/29 11:06:04;;;;;;;2.30;2.10;;;16.60;59.60;;;;;;5013533;28;20445;-58
2024/03/29 11:08:34;;;;;;;2.50;2.30;;;16.40;59.30;;;;;;5013229;28;20950;-59
2024/03/29 11:11:03;;;;;;;2.10;1.90;;;16.60;59.50;;;;;;5014023;28;20409;-60
2024/03/29 11:13:40;;;;;;;2.73;2.23;;;16.50;59.40;;;;;;5014779;28;20424;-59
2024/03/29 11:16:07;;;;;;;2.53;1.93;;;16.60;59.90;;;;;;5013682;28;20468;-60
2024/03/29 11:18:34;;;;;;;3.07;1.93;;;16.80;59.80;;;;;;5014518;28;20955;-57
2024/03/29 11:21:00;;;;;;;1.50;1.40;;;17.00;59.50;;;;;;5012727;28;20429;-60
2024/03/29 11:23:27;;;;;;;2.10;2.00;;;17.30;58.90;;;;;;5014572;28;20428;-59
2024/03/29 11:25:54;;;;;;;1.77;1.47;;;17.20;59.40;;;;;;5013660;28;20767;-59
2024/03/29 11:28:31;;;;;;;2.00;1.90;;;17.20;59.50;;;;;;5013980;28;20484;-58
2024/03/29 11:31:07;;;;;;;2.00;1.80;;;17.60;59.20;;;;;;5013489;28;20427;-59
2024/03/29 11:33:46;;;;;;;2.70;2.20;;;17.70;58.60;;;;;;5014688;28;20431;-59
2024/03/29 11:36:24;;;;;;;3.20;2.17;;;17.80;58.50;;;;;;5013562;28;20465;-59
2024/03/29 11:38:51;;;;;;;2.27;1.90;;;17.70;58.60;;;;;;5008079;28;20428;-59
2024/03/29 11:41:21;;;;;;;3.40;1.77;;;17.70;58.30;;;;;;5013598;28;20420;-57
2024/03/29 11:43:47;;;;;;;2.33;2.13;;;17.90;57.90;;;;;;5013232;28;20975;-60
2024/03/29 11:46:14;;;;;;;3.30;2.77;;;18.00;57.60;;;;;;5013661;28;20441;-59
2024/03/29 11:48:40;;;;;;;3.00;2.70;;;18.20;57.30;;;;;;5011758;28;20280;-59
2024/03/29 11:51:12;;;;;;;2.60;2.13;;;18.20;56.90;;;;;;5013668;28;20477;-60
2024/03/29 11:53:37;;;;;;;2.10;1.90;;;18.20;56.70;;;;;;5012824;28;20429;-57
2024/03/29 11:56:04;;;;;;;2.10;1.90;;;18.10;56.90;;;;;;5013079;28;20611;-60
2024/03/29 11:58:32;;;;;;;1.80;1.70;;;18.10;57.20;;;;;;5013472;28;20174;-59
2024/03/29 12:00:58;;;;;;;2.90;2.00;;;18.00;57.40;;;;;;5012845;28;20857;-58
2024/03/29 12:03:27;;;;;;;1.80;1.60;;;18.00;57.60;;;;;;5013456;28;20798;-58
2024/03/29 12:05:55;;;;;;;2.10;1.53;;;18.10;57.00;;;;;;5012677;28;20429;-60
2024/03/29 12:08:21;;;;;;;2.00;1.70;;;18.00;56.70;;;;;;5013636;28;20445;-57
2024/03/29 12:10:47;;;;;;;2.10;1.90;;;18.20;56.70;;;;;;5012675;28;20444;-60
2024/03/29 12:13:16;;;;;;;1.77;1.67;;;18.00;57.10;;;;;;5013606;28;20940;-59
2024/03/29 12:15:42;;;;;;;1.40;1.30;;;18.10;56.60;;;;;;5005084;28;20213;-59
2024/03/29 12:18:08;;;;;;;1.57;1.40;;;18.00;56.30;;;;;;5013179;28;20459;-58
2024/03/29 12:20:35;;;;;;;1.50;1.40;;;18.00;56.60;;;;;;5012051;28;20192;-59
2024/03/29 12:23:06;;;;;;;1.43;1.33;;;18.20;56.00;;;;;;5013348;28;20273;-59
2024/03/29 12:25:33;;;;;;;1.57;1.30;;;18.10;56.00;;;;;;5012884;28;20504;-59
2024/03/29 12:28:00;;;;;;;4.60;1.53;;;18.00;56.50;;;;;;5012510;28;20445;-59
2024/03/29 12:30:26;;;;;;;2.70;1.53;;;18.20;56.50;;;;;;5012599;28;20954;-60
2024/03/29 12:33:01;;;;;;;2.10;1.90;;;18.20;56.00;;;;;;5012696;28;20487;-60
2024/03/29 12:35:29;;;;;;;1.83;1.60;;;18.30;56.40;;;;;;5013189;28;20478;-60
2024/03/29 12:37:56;;;;;;;1.83;1.47;;;18.60;55.90;;;;;;5012204;28;20446;-60
2024/03/29 12:40:24;;;;;;;2.07;1.40;;;18.90;56.10;;;;;;5012085;28;20508;-59
2024/03/29 12:42:51;;;;;;;1.53;1.33;;;19.00;55.50;;;;;;5012702;28;20460;-59
2024/03/29 12:45:20;;;;;;;1.90;1.40;;;19.30;54.70;;;;;;5012951;28;20444;-59
2024/03/29 12:47:47;;;;;;;1.73;1.30;;;19.60;54.20;;;;;;5005308;28;20563;-60